Time;durP1;ratioP1;P1;durP2;ratioP2;P2;SDS_P1;SDS_P2;PMS_P1;PMS_P2;Temp;Humidity;BMP_temperature;BMP_pressure;BME280_temperature;BME280_humidity;BME280_pressure;Samples;Min_cycle;Max_cycle;Signal;HPM_P1;HPM_P2
2021/11/12 00:13:50;;;;;;;21.02;9.52;;;9.60;99.90;;;;;;5077731;28;20236;-81
2021/11/12 00:16:18;;;;;;;25.63;11.40;;;9.60;99.90;;;;;;5042979;28;20204;-82
2021/11/12 00:18:44;;;;;;;23.45;9.68;;;9.60;99.90;;;;;;5043495;28;20212;-81
2021/11/12 00:21:09;;;;;;;21.63;9.23;;;9.50;99.90;;;;;;5077791;28;20301;-82
2021/11/12 00:23:38;;;;;;;20.80;9.07;;;9.60;99.90;;;;;;5077541;28;20588;-83
2021/11/12 00:26:04;;;;;;;25.35;10.38;;;9.60;99.90;;;;;;5043796;28;20329;-83
2021/11/12 00:28:36;;;;;;;20.48;10.50;;;9.50;99.90;;;;;;5078346;28;20247;-84
2021/11/12 00:31:26;;;;;;;27.67;11.25;;;9.30;99.90;;;;;;5044190;28;20229;-84
2021/11/12 00:36:48;;;;;;;23.88;11.27;;;9.20;99.90;;;;;;5062727;28;20555;-83
2021/11/12 00:39:29;;;;;;;21.92;10.52;;;9.30;99.90;;;;;;5059937;28;20670;-82
2021/11/12 00:44:34;;;;;;;18.17;8.33;;;9.50;99.90;;;;;;5077513;28;20216;-82
2021/11/12 00:47:05;;;;;;;19.60;9.25;;;9.50;99.90;;;;;;5062508;28;20236;-83
2021/11/12 00:49:35;;;;;;;24.27;12.13;;;9.50;99.90;;;;;;5043860;28;20180;-83
2021/11/12 00:52:08;;;;;;;24.95;10.27;;;9.60;99.90;;;;;;5077732;28;20187;-82
2021/11/12 00:54:34;;;;;;;21.45;9.55;;;9.60;99.90;;;;;;5076771;28;20180;-84
2021/11/12 00:57:00;;;;;;;24.50;10.20;;;9.60;99.90;;;;;;5077920;28;20232;-84
2021/11/12 00:59:25;;;;;;;29.70;11.43;;;9.60;99.90;;;;;;5059217;28;20212;-82
2021/11/12 01:01:51;;;;;;;23.60;10.27;;;9.60;99.90;;;;;;5077448;28;20179;-85
2021/11/12 01:04:20;;;;;;;20.77;9.00;;;9.60;99.90;;;;;;5058733;28;20200;-82
2021/11/12 01:06:47;;;;;;;25.10;10.30;;;9.50;99.90;;;;;;5077030;28;20167;-83
2021/11/12 01:09:16;;;;;;;21.05;10.30;;;9.50;99.90;;;;;;5059298;28;20258;-82
2021/11/12 01:11:44;;;;;;;20.02;10.15;;;9.50;99.90;;;;;;5077227;28;20233;-83
2021/11/12 01:14:11;;;;;;;19.35;10.07;;;9.60;99.90;;;;;;5058239;28;20202;-82
2021/11/12 01:16:37;;;;;;;20.27;8.75;;;9.50;99.90;;;;;;5058683;28;20168;-82
2021/11/12 01:19:04;;;;;;;21.07;8.50;;;9.50;99.90;;;;;;5076605;28;20728;-83
2021/11/12 01:21:31;;;;;;;18.38;8.13;;;9.50;99.90;;;;;;5042025;28;20414;-83
2021/11/12 01:23:58;;;;;;;21.92;8.85;;;9.50;99.90;;;;;;5058395;28;20207;-83
2021/11/12 01:26:25;;;;;;;18.25;8.65;;;9.60;99.90;;;;;;5077253;28;20239;-84
2021/11/12 01:28:52;;;;;;;23.58;9.02;;;9.60;99.90;;;;;;5076855;28;20179;-83
2021/11/12 01:31:22;;;;;;;21.33;9.40;;;9.50;99.90;;;;;;5077090;28;20202;-82
2021/11/12 01:33:47;;;;;;;24.02;9.27;;;9.50;99.90;;;;;;5058218;28;20168;-83
2021/11/12 01:38:59;;;;;;;17.75;6.95;;;9.50;99.90;;;;;;5077150;28;20264;-82
2021/11/12 01:41:26;;;;;;;25.15;8.45;;;9.60;99.90;;;;;;5077103;28;20699;-83
2021/11/12 01:43:56;;;;;;;20.58;9.52;;;9.50;99.90;;;;;;5076635;28;20168;-83
2021/11/12 01:46:30;;;;;;;19.05;8.68;;;9.50;99.90;;;;;;5042733;28;20184;-82
2021/11/12 01:51:26;;;;;;;19.00;8.20;;;9.50;99.90;;;;;;5077420;28;20221;-83
2021/11/12 01:56:42;;;;;;;21.30;7.68;;;9.50;99.90;;;;;;5060528;28;20183;-82
2021/11/12 01:59:11;;;;;;;22.90;8.88;;;9.50;99.90;;;;;;5045319;28;20203;-81
2021/11/12 02:02:00;;;;;;;18.77;8.40;;;9.50;99.90;;;;;;5060500;28;20172;-82
2021/11/12 02:04:28;;;;;;;23.92;8.35;;;9.50;99.90;;;;;;5059220;28;20183;-82
2021/11/12 02:06:55;;;;;;;20.10;7.72;;;9.50;99.90;;;;;;5059374;28;20180;-82
2021/11/12 02:09:22;;;;;;;17.70;7.93;;;9.50;99.90;;;;;;5059499;28;20607;-81
2021/11/12 02:11:55;;;;;;;21.35;8.45;;;9.50;99.90;;;;;;5043034;28;20274;-84
2021/11/12 02:14:21;;;;;;;23.80;8.77;;;9.50;99.90;;;;;;5043145;28;20227;-83
2021/11/12 02:17:00;;;;;;;25.15;8.30;;;9.50;99.90;;;;;;5077989;28;20171;-82
2021/11/12 02:19:27;;;;;;;23.23;8.45;;;9.50;99.90;;;;;;5059743;28;20191;-83
2021/11/12 02:22:04;;;;;;;19.45;8.13;;;9.50;99.90;;;;;;5059660;28;20163;-83
2021/11/12 02:24:30;;;;;;;21.63;9.30;;;9.60;99.90;;;;;;5077936;28;20270;-84
2021/11/12 02:26:58;;;;;;;20.60;8.52;;;9.60;99.90;;;;;;5076465;28;20172;-83
2021/11/12 02:29:30;;;;;;;25.95;8.45;;;9.50;99.90;;;;;;5050229;28;20230;-82
2021/11/12 02:31:55;;;;;;;15.65;7.22;;;9.60;99.90;;;;;;5058478;28;20666;-83
2021/11/12 02:34:21;;;;;;;20.80;9.07;;;9.60;99.90;;;;;;5070154;28;20206;-83
2021/11/12 02:36:47;;;;;;;19.90;9.53;;;9.60;99.90;;;;;;5079370;28;20590;-83
2021/11/12 02:39:14;;;;;;;21.77;8.93;;;9.60;99.90;;;;;;5078520;28;20294;-82
2021/11/12 02:41:41;;;;;;;18.52;9.10;;;9.50;99.90;;;;;;5079045;28;20168;-82
2021/11/12 02:44:08;;;;;;;21.33;8.40;;;9.60;99.90;;;;;;5060692;28;20591;-82
2021/11/12 02:46:34;;;;;;;16.88;7.18;;;9.50;99.90;;;;;;5061154;28;20226;-82
2021/11/12 02:49:00;;;;;;;21.67;9.68;;;9.50;99.90;;;;;;5079039;28;20194;-82
2021/11/12 02:51:29;;;;;;;22.80;7.28;;;9.50;99.90;;;;;;5078602;28;20520;-82
2021/11/12 02:53:58;;;;;;;21.02;7.93;;;9.50;99.90;;;;;;5078931;28;20669;-83
2021/11/12 02:56:29;;;;;;;18.20;6.97;;;9.60;99.90;;;;;;5062258;28;20184;-82
2021/11/12 02:59:02;;;;;;;15.95;7.30;;;9.60;99.90;;;;;;5061738;28;20265;-82
2021/11/12 03:01:29;;;;;;;20.45;8.27;;;9.50;99.90;;;;;;5060876;28;20183;-82
2021/11/12 03:03:55;;;;;;;20.20;8.10;;;9.50;99.90;;;;;;5060045;28;20180;-83
2021/11/12 03:06:21;;;;;;;19.80;8.60;;;9.50;99.90;;;;;;5060654;28;20171;-83
2021/11/12 03:08:48;;;;;;;18.25;8.45;;;9.50;99.90;;;;;;5060609;28;20206;-82
2021/11/12 03:11:14;;;;;;;20.08;8.00;;;9.50;99.90;;;;;;5078650;28;20535;-82
2021/11/12 03:13:40;;;;;;;25.73;8.80;;;9.50;99.90;;;;;;5078112;28;20199;-83
2021/11/12 03:16:06;;;;;;;22.70;9.33;;;9.50;99.90;;;;;;5044277;28;20199;-82
2021/11/12 03:18:33;;;;;;;20.95;7.68;;;9.50;99.90;;;;;;5060463;28;20196;-83
2021/11/12 03:21:02;;;;;;;19.52;8.07;;;9.50;99.90;;;;;;5061198;28;20254;-82
2021/11/12 03:23:34;;;;;;;21.45;8.85;;;9.50;99.90;;;;;;5078374;28;20160;-82
2021/11/12 03:26:18;;;;;;;19.48;8.95;;;9.50;99.90;;;;;;5059927;28;20223;-82
2021/11/12 03:29:02;;;;;;;22.17;9.95;;;9.50;99.90;;;;;;5060100;28;20198;-84
2021/11/12 04:04:05;;;;;;;23.42;9.57;;;9.50;99.90;;;;;;5077129;28;20247;-84
2021/11/12 04:20:16;;;;;;;32.75;8.57;;;9.40;99.90;;;;;;5074394;28;20199;-83
2021/11/12 04:49:16;;;;;;;25.83;9.57;;;9.40;99.90;;;;;;5055952;28;20191;-82
2021/11/12 05:44:18;;;;;;;31.92;10.70;;;9.20;99.90;;;;;;5060932;28;20179;-81
2021/11/12 05:52:12;;;;;;;37.45;13.45;;;9.30;99.90;;;;;;5075995;28;20171;-84
2021/11/12 05:57:38;;;;;;;29.33;11.32;;;9.20;99.90;;;;;;5029726;28;20188;-83
2021/11/12 06:00:08;;;;;;;38.38;14.13;;;9.20;99.90;;;;;;5057780;28;20223;-81
2021/11/12 06:02:34;;;;;;;33.00;12.93;;;9.20;99.90;;;;;;5076061;28;20673;-80
2021/11/12 06:04:59;;;;;;;33.40;12.10;;;9.10;99.90;;;;;;5074754;28;20195;-79
2021/11/12 06:07:25;;;;;;;30.67;10.30;;;9.10;99.90;;;;;;5057045;28;20418;-80
2021/11/12 06:09:51;;;;;;;38.70;13.70;;;9.10;99.90;;;;;;5075412;28;20182;-79
2021/11/12 06:12:17;;;;;;;35.90;12.67;;;9.10;99.90;;;;;;5075331;28;20463;-80
2021/11/12 06:14:42;;;;;;;29.40;11.20;;;9.10;99.90;;;;;;5024648;28;20206;-80
2021/11/12 06:17:08;;;;;;;27.33;12.40;;;9.10;99.90;;;;;;5075753;28;20172;-81
2021/11/12 06:19:34;;;;;;;33.13;13.77;;;9.00;99.90;;;;;;5074844;28;20195;-80
2021/11/12 06:22:00;;;;;;;25.53;12.07;;;9.10;99.90;;;;;;5057080;28;20164;-82
2021/11/12 06:24:26;;;;;;;22.30;10.17;;;9.00;99.90;;;;;;5071664;28;20188;-81
2021/11/12 06:26:53;;;;;;;23.38;10.60;;;9.00;99.90;;;;;;5059086;28;20525;-81
2021/11/12 06:29:19;;;;;;;27.10;9.43;;;9.10;99.90;;;;;;5058353;28;20188;-81
2021/11/12 06:31:44;;;;;;;25.90;11.63;;;9.10;99.90;;;;;;5078204;28;20183;-81
2021/11/12 06:34:10;;;;;;;34.43;10.50;;;9.10;99.90;;;;;;5075406;28;20200;-83
2021/11/12 06:36:35;;;;;;;26.00;10.93;;;9.10;99.90;;;;;;5075363;28;20572;-83
2021/11/12 06:39:04;;;;;;;32.53;12.70;;;9.10;99.90;;;;;;5059268;28;20203;-82
2021/11/12 06:41:51;;;;;;;39.95;14.20;;;9.10;99.90;;;;;;5040127;28;20181;-82
2021/11/12 06:49:51;;;;;;;27.85;10.95;;;9.10;99.90;;;;;;5075962;28;20194;-81
2021/11/12 06:52:18;;;;;;;30.83;11.15;;;9.10;99.90;;;;;;5075516;28;20546;-82
2021/11/12 06:54:48;;;;;;;29.10;11.60;;;9.10;99.90;;;;;;5060836;28;20208;-81
2021/11/12 06:57:18;;;;;;;32.85;11.32;;;9.20;99.90;;;;;;5059229;28;20173;-83
2021/11/12 06:59:44;;;;;;;41.22;12.80;;;9.20;99.90;;;;;;5065932;28;20290;-83
2021/11/12 07:02:12;;;;;;;29.00;11.13;;;9.20;99.90;;;;;;5065180;28;20634;-81
2021/11/12 07:04:38;;;;;;;31.90;10.68;;;9.20;99.90;;;;;;5061661;28;20434;-81
2021/11/12 07:07:05;;;;;;;37.88;13.38;;;9.10;99.90;;;;;;5040145;28;20173;-82
2021/11/12 07:09:31;;;;;;;30.77;11.93;;;9.10;99.90;;;;;;5075238;28;20187;-84
2021/11/12 07:11:57;;;;;;;44.17;12.80;;;9.10;99.90;;;;;;5073836;28;20164;-82
2021/11/12 07:14:23;;;;;;;34.03;12.40;;;9.00;99.90;;;;;;5056840;28;20270;-83
2021/11/12 07:16:48;;;;;;;38.07;14.10;;;9.00;99.90;;;;;;5075236;28;20190;-82
2021/11/12 07:19:15;;;;;;;33.30;13.40;;;9.00;99.90;;;;;;5044986;28;20678;-82
2021/11/12 07:21:40;;;;;;;35.63;13.00;;;9.10;99.90;;;;;;5081401;28;20171;-82
2021/11/12 07:24:06;;;;;;;33.53;13.40;;;9.10;99.90;;;;;;5066849;28;20169;-82
2021/11/12 07:26:32;;;;;;;37.13;12.50;;;9.10;99.90;;;;;;5062156;28;20418;-81
2021/11/12 07:28:58;;;;;;;29.05;12.55;;;9.10;99.90;;;;;;5042790;28;20987;-81
2021/11/12 07:31:24;;;;;;;27.77;11.32;;;9.10;99.90;;;;;;5052167;28;20212;-80
2021/11/12 07:33:52;;;;;;;32.33;11.65;;;9.10;99.90;;;;;;5073570;28;20176;-82
2021/11/12 07:36:38;;;;;;;26.48;10.68;;;9.40;99.90;;;;;;5047721;28;20185;-89
2021/11/12 07:39:09;;;;;;;33.20;12.55;;;9.70;99.90;;;;;;5034617;28;20568;-86
2021/11/12 07:41:55;;;;;;;30.88;13.07;;;9.70;99.90;;;;;;5031449;28;20236;-82
2021/11/12 07:49:34;;;;;;;34.75;12.38;;;9.80;99.90;;;;;;5079014;28;20593;-86
2021/11/12 07:51:59;;;;;;;26.93;10.70;;;9.90;99.90;;;;;;5097545;28;20160;-84
2021/11/12 07:54:25;;;;;;;21.90;11.57;;;9.90;99.90;;;;;;5097377;28;20228;-81
2021/11/12 07:56:51;;;;;;;31.97;12.30;;;10.10;99.90;;;;;;5078143;28;20180;-81
2021/11/12 07:59:19;;;;;;;31.70;11.98;;;10.10;99.90;;;;;;5077443;28;20203;-83
2021/11/12 08:01:45;;;;;;;34.65;12.63;;;10.10;99.90;;;;;;5077674;28;20263;-80
2021/11/12 08:04:11;;;;;;;40.73;14.87;;;10.10;99.90;;;;;;5057830;28;20206;-82
2021/11/12 08:06:38;;;;;;;31.60;12.93;;;10.10;99.90;;;;;;5048515;28;20179;-80
2021/11/12 08:09:16;;;;;;;30.23;13.32;;;9.90;99.90;;;;;;5078395;28;20644;-80
2021/11/12 08:11:48;;;;;;;31.15;12.57;;;9.90;99.90;;;;;;5076770;28;20195;-79
2021/11/12 08:14:22;;;;;;;40.28;12.35;;;9.90;99.90;;;;;;5043651;28;20199;-79
2021/11/12 08:19:39;;;;;;;29.20;12.00;;;9.90;99.90;;;;;;5077541;28;20268;-79
2021/11/12 08:22:07;;;;;;;31.88;12.90;;;9.90;99.90;;;;;;5062357;28;20786;-80
2021/11/12 08:24:39;;;;;;;34.47;11.73;;;10.00;99.90;;;;;;5078245;28;20180;-80
2021/11/12 08:38:05;;;;;;;34.90;12.98;;;9.70;99.90;;;;;;5057837;28;20199;-80
2021/11/12 08:45:56;;;;;;;39.17;13.20;;;9.60;99.90;;;;;;5058828;28;20234;-82
2021/11/12 08:51:12;;;;;;;41.53;11.57;;;9.60;99.90;;;;;;5061246;28;20221;-80
2021/11/12 08:53:40;;;;;;;41.80;13.43;;;9.50;99.90;;;;;;5075740;28;20202;-81
2021/11/12 08:56:12;;;;;;;26.15;11.07;;;9.60;99.90;;;;;;5042029;28;20284;-81
2021/11/12 08:58:38;;;;;;;33.70;13.70;;;9.60;99.90;;;;;;5059027;28;20211;-81
2021/11/12 09:01:03;;;;;;;29.15;10.85;;;9.70;99.90;;;;;;5067182;28;20173;-82
2021/11/12 09:03:31;;;;;;;30.70;13.00;;;9.70;99.90;;;;;;5062060;28;20180;-81
2021/11/12 09:05:57;;;;;;;30.20;12.07;;;9.70;99.90;;;;;;5039708;28;20207;-82
2021/11/12 09:08:23;;;;;;;28.00;11.03;;;9.70;99.90;;;;;;5048617;28;20176;-82
2021/11/12 09:10:48;;;;;;;27.80;12.03;;;9.70;99.90;;;;;;5077337;28;20176;-82
2021/11/12 09:13:24;;;;;;;28.40;11.43;;;9.80;99.90;;;;;;5066659;28;20607;-81
2021/11/12 09:15:53;;;;;;;25.85;11.27;;;9.70;99.90;;;;;;5054334;28;20198;-82
2021/11/12 09:18:22;;;;;;;24.77;10.23;;;9.90;99.90;;;;;;5074424;28;20164;-81
2021/11/12 09:20:51;;;;;;;32.72;14.48;;;9.90;99.90;;;;;;5057852;28;20184;-82
2021/11/12 09:23:17;;;;;;;27.05;10.75;;;10.00;99.90;;;;;;5076543;28;20200;-80
2021/11/12 09:25:51;;;;;;;26.08;11.95;;;9.90;99.90;;;;;;5071618;28;20196;-81
2021/11/12 09:28:17;;;;;;;25.38;10.95;;;10.00;99.90;;;;;;5058907;28;20168;-81
2021/11/12 09:30:44;;;;;;;30.80;12.90;;;10.00;99.90;;;;;;5041835;28;20175;-83
2021/11/12 09:33:10;;;;;;;28.35;12.32;;;10.10;99.90;;;;;;5077175;28;20164;-81
2021/11/12 09:35:35;;;;;;;25.50;10.63;;;10.00;99.90;;;;;;5044128;28;20333;-84
2021/11/12 09:38:02;;;;;;;20.93;10.00;;;10.00;99.90;;;;;;5088735;28;20422;-82
2021/11/12 09:40:28;;;;;;;22.80;11.20;;;10.10;99.90;;;;;;5091121;28;20203;-82
2021/11/12 09:42:54;;;;;;;30.83;11.47;;;10.10;99.90;;;;;;5087464;28;20175;-84
2021/11/12 09:45:21;;;;;;;27.45;11.32;;;10.10;99.90;;;;;;5061460;28;20195;-80
2021/11/12 09:47:48;;;;;;;25.75;10.77;;;10.10;99.90;;;;;;5056428;28;20176;-82
2021/11/12 09:50:25;;;;;;;20.42;9.90;;;10.10;99.90;;;;;;5057700;28;20651;-80
2021/11/12 09:52:52;;;;;;;25.80;10.27;;;10.10;99.90;;;;;;5072827;28;20175;-81
2021/11/12 09:55:19;;;;;;;23.83;9.52;;;10.10;99.90;;;;;;5073510;28;20195;-81
2021/11/12 09:57:49;;;;;;;23.92;9.30;;;10.20;99.90;;;;;;5057678;28;20547;-84
2021/11/12 10:00:20;;;;;;;21.33;10.25;;;10.20;99.90;;;;;;5056737;28;20612;-82
2021/11/12 10:02:48;;;;;;;22.73;10.88;;;10.20;99.90;;;;;;5075866;28;20182;-82
2021/11/12 10:05:31;;;;;;;21.70;9.05;;;10.20;99.90;;;;;;5057350;28;20547;-82
2021/11/12 10:07:58;;;;;;;35.20;12.25;;;10.30;99.90;;;;;;5057772;28;20532;-82
2021/11/12 10:10:24;;;;;;;18.45;8.90;;;10.20;99.90;;;;;;5076893;28;20167;-81
2021/11/12 10:12:51;;;;;;;25.40;10.15;;;10.30;99.90;;;;;;5059190;28;20198;-83
2021/11/12 10:15:19;;;;;;;24.88;10.85;;;10.30;99.90;;;;;;5057280;28;20203;-83
2021/11/12 10:17:47;;;;;;;21.45;9.43;;;10.30;99.90;;;;;;5056321;28;20188;-82
2021/11/12 10:20:16;;;;;;;20.90;9.50;;;10.30;99.90;;;;;;5041413;28;20222;-83
2021/11/12 10:22:45;;;;;;;16.65;9.35;;;10.30;99.90;;;;;;5057716;28;20172;-82
2021/11/12 10:25:12;;;;;;;22.40;9.60;;;10.30;99.90;;;;;;5057989;28;20663;-82
2021/11/12 10:27:40;;;;;;;17.65;7.50;;;10.30;99.90;;;;;;5057936;28;20180;-83
2021/11/12 10:30:08;;;;;;;17.73;8.90;;;10.40;99.90;;;;;;5075497;28;20197;-84
2021/11/12 10:32:35;;;;;;;17.58;7.88;;;10.30;99.90;;;;;;5067024;28;20177;-84
2021/11/12 10:35:08;;;;;;;16.90;8.52;;;10.30;99.90;;;;;;5036645;28;20212;-83
2021/11/12 10:37:35;;;;;;;15.48;6.90;;;10.30;99.90;;;;;;5045640;28;20188;-84
2021/11/12 10:40:10;;;;;;;17.80;7.53;;;10.20;99.90;;;;;;5073296;28;20936;-83
2021/11/12 10:42:44;;;;;;;18.00;7.78;;;10.30;99.90;;;;;;5055532;28;20183;-83
2021/11/12 10:45:15;;;;;;;14.95;7.80;;;10.30;99.90;;;;;;5036714;28;20196;-84
2021/11/12 10:47:50;;;;;;;15.57;8.07;;;10.30;99.90;;;;;;5073881;28;20168;-85
2021/11/12 10:50:17;;;;;;;19.15;9.25;;;10.30;99.90;;;;;;5055314;28;20203;-82
2021/11/12 10:52:43;;;;;;;13.48;7.25;;;10.30;99.90;;;;;;5057219;28;20264;-83
2021/11/12 10:55:17;;;;;;;14.63;7.68;;;10.20;99.90;;;;;;5059445;28;20207;-84
2021/11/12 10:58:13;;;;;;;17.35;7.93;;;10.30;99.90;;;;;;5078724;28;20171;-83
2021/11/12 11:00:47;;;;;;;15.50;6.90;;;10.30;99.90;;;;;;5072674;28;20279;-83
2021/11/12 11:03:20;;;;;;;17.48;8.30;;;10.30;99.90;;;;;;5077031;28;20175;-83
2021/11/12 11:05:58;;;;;;;13.73;8.35;;;10.30;99.90;;;;;;5073695;28;20200;-83
2021/11/12 11:08:30;;;;;;;12.30;7.35;;;10.40;99.90;;;;;;5077945;28;20537;-82
2021/11/12 11:11:05;;;;;;;19.15;8.85;;;10.40;99.90;;;;;;5059399;28;20252;-82
2021/11/12 11:13:33;;;;;;;16.27;8.43;;;10.40;99.90;;;;;;5077159;28;20282;-82
2021/11/12 11:16:16;;;;;;;14.15;7.22;;;10.40;99.90;;;;;;5058691;28;20210;-82
2021/11/12 11:18:43;;;;;;;12.77;7.88;;;10.50;99.90;;;;;;5060863;28;20543;-82
2021/11/12 11:21:25;;;;;;;15.55;6.78;;;10.50;99.90;;;;;;5061329;28;20184;-82
2021/11/12 11:24:07;;;;;;;13.60;7.22;;;10.50;99.90;;;;;;5057270;28;20669;-83
2021/11/12 11:26:45;;;;;;;15.48;7.82;;;10.60;99.90;;;;;;5083817;28;20195;-81
2021/11/12 11:29:17;;;;;;;13.93;8.18;;;10.50;99.90;;;;;;5083934;28;20528;-81
2021/11/12 11:31:45;;;;;;;18.27;8.32;;;10.50;99.90;;;;;;5046783;28;20235;-82
2021/11/12 11:34:11;;;;;;;14.43;7.45;;;10.50;99.90;;;;;;5080910;28;20263;-82
2021/11/12 11:36:40;;;;;;;17.95;7.78;;;10.60;99.90;;;;;;5062245;28;20508;-82
2021/11/12 11:39:09;;;;;;;19.23;7.75;;;10.60;99.90;;;;;;5082514;28;20239;-84
2021/11/12 11:41:35;;;;;;;16.23;7.90;;;10.60;99.90;;;;;;5062665;28;20313;-83
2021/11/12 11:44:01;;;;;;;14.33;6.50;;;10.60;99.90;;;;;;5078497;28;20218;-82
2021/11/12 11:46:30;;;;;;;14.60;6.70;;;10.50;99.90;;;;;;5080837;28;20429;-83
2021/11/12 11:48:58;;;;;;;13.73;6.90;;;10.50;99.90;;;;;;5061199;28;20184;-83
2021/11/12 11:51:36;;;;;;;18.38;7.63;;;10.60;99.90;;;;;;5061049;28;20204;-82
2021/11/12 11:54:11;;;;;;;12.00;6.32;;;10.60;99.90;;;;;;5079026;28;20241;-82
2021/11/12 11:56:42;;;;;;;9.00;5.60;;;10.60;99.90;;;;;;5046388;28;20172;-84
2021/11/12 11:59:19;;;;;;;15.88;5.95;;;10.60;99.90;;;;;;5043281;28;20199;-82
2021/11/12 12:01:52;;;;;;;9.30;5.72;;;10.70;99.90;;;;;;5079600;28;20164;-84
2021/11/12 12:04:18;;;;;;;11.43;6.15;;;10.70;99.90;;;;;;5039880;28;20201;-83
2021/11/12 12:07:04;;;;;;;11.10;6.40;;;10.70;99.90;;;;;;5063268;28;20246;-84
2021/11/12 12:10:01;;;;;;;10.35;5.93;;;10.70;99.90;;;;;;5059616;28;20733;-82
2021/11/12 12:12:33;;;;;;;9.82;6.30;;;10.60;99.90;;;;;;5070581;28;20176;-83
2021/11/12 12:15:05;;;;;;;15.57;7.47;;;10.70;99.90;;;;;;5061172;28;20196;-83
2021/11/12 12:17:38;;;;;;;13.02;6.82;;;10.70;99.90;;;;;;5064409;28;20225;-82
2021/11/12 12:37:10;;;;;;;17.17;7.57;;;10.50;99.90;;;;;;5065611;28;20210;-84
2021/11/12 13:26:03;;;;;;;11.18;4.57;;;10.60;99.90;;;;;;5065842;28;20748;-84
2021/11/12 13:28:35;;;;;;;8.27;4.75;;;10.40;99.90;;;;;;5061841;28;20176;-83
2021/11/12 13:31:09;;;;;;;5.03;3.50;;;10.30;99.90;;;;;;5059877;28;20267;-83
2021/11/12 13:33:40;;;;;;;6.20;4.03;;;10.30;99.90;;;;;;5060978;28;20172;-85
2021/11/12 13:36:28;;;;;;;9.63;5.22;;;10.30;99.90;;;;;;5062788;28;20208;-84
2021/11/12 13:38:59;;;;;;;12.80;4.95;;;10.40;99.90;;;;;;5066315;28;20192;-84
2021/11/12 13:41:37;;;;;;;7.68;4.97;;;10.40;99.90;;;;;;5082688;28;20171;-82
2021/11/12 13:44:07;;;;;;;8.63;5.43;;;10.40;99.90;;;;;;5063536;28;20547;-82
2021/11/12 13:46:47;;;;;;;11.98;5.45;;;10.50;99.90;;;;;;5081901;28;20194;-84
2021/11/12 13:49:42;;;;;;;11.38;4.95;;;10.40;99.90;;;;;;5068073;28;20262;-85
2021/11/12 13:52:12;;;;;;;9.20;5.20;;;10.40;99.90;;;;;;5059504;28;20267;-85
2021/11/12 13:54:48;;;;;;;7.15;4.60;;;10.30;99.90;;;;;;5062712;28;20199;-83
2021/11/12 13:57:20;;;;;;;8.48;4.38;;;10.20;99.90;;;;;;5060901;28;20213;-84
2021/11/12 14:00:04;;;;;;;7.15;4.30;;;10.20;99.90;;;;;;5058675;28;20196;-83
2021/11/12 14:02:48;;;;;;;7.93;4.03;;;10.20;99.90;;;;;;5064596;28;20164;-83
2021/11/12 14:05:15;;;;;;;6.57;4.15;;;10.30;99.90;;;;;;5065239;28;20238;-84
2021/11/12 14:07:43;;;;;;;8.45;4.20;;;10.30;99.90;;;;;;5064987;28;20631;-83
2021/11/12 14:10:14;;;;;;;8.88;5.15;;;10.30;99.90;;;;;;5050722;28;20176;-84
2021/11/12 14:12:58;;;;;;;11.18;6.13;;;10.20;99.90;;;;;;5066279;28;20183;-83
2021/11/12 14:15:34;;;;;;;7.05;4.88;;;10.20;99.90;;;;;;5085111;28;20187;-84
2021/11/12 14:21:07;;;;;;;9.27;5.68;;;10.30;99.90;;;;;;5084598;28;20172;-83
2021/11/12 14:30:08;;;;;;;9.45;5.55;;;10.20;99.90;;;;;;5083659;28;20176;-82
2021/11/12 14:37:51;;;;;;;8.30;6.05;;;10.20;99.90;;;;;;5080346;28;20183;-83
2021/11/12 14:43:27;;;;;;;12.27;7.30;;;10.20;99.90;;;;;;5081141;28;20222;-82
2021/11/12 14:46:37;;;;;;;15.30;7.65;;;10.20;99.90;;;;;;5063014;28;20188;-84
2021/11/12 14:49:25;;;;;;;19.40;6.72;;;10.20;99.90;;;;;;5082497;28;20192;-83
2021/11/12 14:52:12;;;;;;;14.05;7.90;;;10.20;99.90;;;;;;5065225;28;20179;-83
2021/11/12 14:54:44;;;;;;;9.00;5.75;;;10.20;99.90;;;;;;5038673;28;20199;-83
2021/11/12 14:57:25;;;;;;;11.35;6.70;;;10.10;99.90;;;;;;5075519;28;20194;-83
2021/11/12 14:59:55;;;;;;;9.70;6.32;;;10.10;99.90;;;;;;5078377;28;20191;-83
2021/11/12 15:02:22;;;;;;;12.07;6.15;;;10.10;99.90;;;;;;5095958;28;20218;-83
2021/11/12 15:04:48;;;;;;;13.88;6.15;;;10.10;99.90;;;;;;5074550;28;20200;-83
2021/11/12 15:07:15;;;;;;;13.20;7.00;;;10.10;99.90;;;;;;5077958;28;20172;-82
2021/11/12 15:09:41;;;;;;;9.70;6.15;;;10.00;99.90;;;;;;5061049;28;20421;-82
2021/11/12 15:12:09;;;;;;;8.07;4.55;;;10.00;99.90;;;;;;5063264;28;20184;-83
2021/11/12 15:14:41;;;;;;;16.17;6.85;;;10.00;99.90;;;;;;5063310;28;20203;-84
2021/11/12 15:17:10;;;;;;;13.57;6.32;;;10.00;99.90;;;;;;5060424;28;20186;-84
2021/11/12 15:19:38;;;;;;;12.57;7.15;;;9.90;99.90;;;;;;5079774;28;20278;-83
2021/11/12 15:32:27;;;;;;;11.53;6.07;;;10.00;99.90;;;;;;5059056;28;20175;-82
2021/11/12 15:34:58;;;;;;;16.83;7.43;;;9.90;99.90;;;;;;5076947;28;20219;-81
2021/11/12 15:37:30;;;;;;;9.68;6.60;;;9.90;99.90;;;;;;5060426;28;20551;-82
2021/11/12 15:40:05;;;;;;;13.27;6.82;;;9.90;99.90;;;;;;5063439;28;20203;-84
2021/11/12 15:45:06;;;;;;;17.05;8.05;;;9.90;99.90;;;;;;5084086;28;20195;-83
2021/11/12 15:47:51;;;;;;;9.85;6.60;;;9.90;99.90;;;;;;5081365;28;20168;-84
2021/11/12 15:50:25;;;;;;;13.98;6.47;;;9.90;99.90;;;;;;5080241;28;20443;-83
2021/11/12 15:53:05;;;;;;;16.70;7.68;;;9.90;99.90;;;;;;5063018;28;20582;-83
2021/11/12 15:55:49;;;;;;;9.88;5.60;;;9.90;99.90;;;;;;5081099;28;20211;-83
2021/11/12 16:00:53;;;;;;;12.65;6.47;;;9.90;99.90;;;;;;5077764;28;20188;-83
2021/11/12 16:14:00;;;;;;;10.13;6.17;;;9.90;99.90;;;;;;5082901;28;20175;-83
2021/11/12 16:22:04;;;;;;;13.10;6.70;;;9.90;99.90;;;;;;5067555;28;20172;-83
2021/11/12 16:27:00;;;;;;;15.23;7.25;;;9.90;99.90;;;;;;5084872;28;20687;-83
2021/11/12 16:32:06;;;;;;;16.50;6.75;;;9.80;99.90;;;;;;5068220;28;20176;-83
2021/11/12 16:34:36;;;;;;;13.32;7.38;;;9.90;99.90;;;;;;5084412;28;20214;-83
2021/11/12 16:37:04;;;;;;;17.33;8.27;;;9.90;99.90;;;;;;5066609;28;20199;-84
2021/11/12 16:40:18;;;;;;;13.88;6.55;;;9.90;99.90;;;;;;5050933;28;20199;-85
2021/11/12 16:45:07;;;;;;;10.65;7.18;;;9.80;99.90;;;;;;5094747;28;20200;-83
2021/11/12 16:47:46;;;;;;;15.52;8.13;;;9.80;99.90;;;;;;5062548;28;20222;-83
2021/11/12 16:50:33;;;;;;;15.85;7.10;;;9.80;99.90;;;;;;5061317;28;20566;-83
2021/11/12 16:53:23;;;;;;;16.05;7.53;;;9.80;99.90;;;;;;5060890;28;20176;-83
2021/11/12 16:56:12;;;;;;;12.73;8.23;;;9.80;99.90;;;;;;5044891;28;20203;-84
2021/11/12 16:58:45;;;;;;;14.23;7.13;;;9.80;99.90;;;;;;5074930;28;20191;-83
2021/11/12 17:02:15;;;;;;;16.05;7.75;;;9.80;99.90;;;;;;5063476;28;20226;-84
2021/11/12 17:11:47;;;;;;;13.98;8.00;;;9.80;99.90;;;;;;5072279;28;20185;-83
2021/11/12 17:19:30;;;;;;;19.77;7.95;;;9.90;99.90;;;;;;5080216;28;20214;-86
2021/11/12 17:46:40;;;;;;;21.80;9.57;;;10.00;99.90;;;;;;5063619;28;20559;-83
2021/11/12 18:02:43;;;;;;;19.08;7.68;;;10.00;99.90;;;;;;5063910;28;20237;-82
2021/11/12 18:10:27;;;;;;;18.48;8.65;;;10.00;99.90;;;;;;5079489;28;20184;-83
2021/11/12 18:13:13;;;;;;;20.70;9.43;;;9.90;99.90;;;;;;5079692;28;20175;-83
2021/11/12 21:48:30;;;;;;;35.13;14.55;;;7.70;99.90;;;;;;5062613;28;20263;-85
2021/11/12 21:50:59;;;;;;;34.25;14.55;;;7.70;99.90;;;;;;5051501;28;20161;-86
2021/11/12 21:53:28;;;;;;;35.20;13.70;;;7.70;99.90;;;;;;5052813;28;20179;-86
2021/11/12 21:55:56;;;;;;;35.15;14.48;;;7.70;99.90;;;;;;5073471;28;20283;-82
2021/11/12 21:58:22;;;;;;;36.35;14.88;;;7.70;99.90;;;;;;5033204;28;20184;-84
2021/11/12 22:00:49;;;;;;;39.25;14.70;;;7.60;99.90;;;;;;5069285;28;20204;-83
2021/11/12 22:03:16;;;;;;;39.45;17.02;;;7.40;99.90;;;;;;5023822;28;20264;-83
2021/11/12 22:05:42;;;;;;;27.35;13.75;;;7.50;99.90;;;;;;5021024;28;20196;-83
2021/11/12 22:08:09;;;;;;;37.78;14.95;;;7.40;99.90;;;;;;5056806;28;20261;-84
2021/11/12 22:10:35;;;;;;;38.95;15.65;;;7.40;99.90;;;;;;5056047;28;20643;-84
2021/11/12 22:13:04;;;;;;;35.50;15.18;;;7.30;99.90;;;;;;5056120;28;20205;-83
2021/11/12 22:15:30;;;;;;;36.63;15.10;;;7.40;99.90;;;;;;5021500;28;20203;-85
2021/11/12 22:18:00;;;;;;;36.47;15.60;;;7.40;99.90;;;;;;5056086;28;20293;-84
2021/11/12 22:20:25;;;;;;;36.53;14.68;;;7.40;99.90;;;;;;5055489;28;20253;-83
2021/11/12 22:22:51;;;;;;;36.27;15.00;;;7.40;99.90;;;;;;5055750;28;20201;-83
2021/11/12 22:25:18;;;;;;;41.80;15.57;;;7.50;99.90;;;;;;5038645;28;20598;-83
2021/11/12 22:27:43;;;;;;;36.92;15.68;;;7.50;99.90;;;;;;5039414;28;20499;-84
2021/11/12 22:30:11;;;;;;;38.03;15.10;;;7.40;99.90;;;;;;5060707;28;20204;-84
2021/11/12 22:32:37;;;;;;;33.25;15.80;;;7.40;99.90;;;;;;5024880;28;20211;-84
2021/11/12 22:35:03;;;;;;;37.37;16.73;;;7.40;99.90;;;;;;5062326;28;20204;-86
2021/11/12 22:37:29;;;;;;;35.92;15.30;;;7.40;99.90;;;;;;5064078;28;20169;-85
2021/11/12 22:39:55;;;;;;;40.90;16.70;;;7.30;99.90;;;;;;5046361;28;20207;-85